アダック島 の空港の天気 - METARとTAF

アダック空港 ( PADK / ADK ) - アメリカ アラスカ州アダック島
飛行場実況気象(Metar)
観測時間12/13 20:56 AKST (12/14 05:56 UTC)
風向・風速北北東 12m/s 瞬間風速14m/s
視程10km以上
天気現象
全天の8割程度の雲 雲底高度 1070m
全天を覆う雲 雲底高度 1280m
気温0.6℃
湿度69%
気圧985.8hPa
METARPADK 140556Z AUTO 03023G27KT 10SM BKN035 OVC042 01/M04 A2911 RMK AO2 PK WND 05030/0531 SLP858 60001 T00061044 10017 20006 53028 FZRANO
過去の天気等 Google飛行場航空写真 Wunderground天気予報

過去48時間のMETAR

飛行場予報(TAF)
データがありません